Time;durP1;ratioP1;P1;durP2;ratioP2;P2;SDS_P1;SDS_P2;PMS_P1;PMS_P2;Temp;Humidity;BMP_temperature;BMP_pressure;BME280_temperature;BME280_humidity;BME280_pressure;Samples;Min_cycle;Max_cycle;Signal;HPM_P1;HPM_P2
2021/06/26 17:31:36;;;;;;;6.97;2.77;;;;;;;;;;5271331;23;20060;-69
2021/06/26 17:34:02;;;;;;;5.45;2.78;;;;;;;;;;4935387;29;20281;-70
2021/06/26 17:36:28;;;;;;;10.25;3.78;;;;;;;;;;4918062;29;20047;-67
2021/06/26 17:38:54;;;;;;;5.38;2.65;;;;;;;;;;4932573;29;20039;-64
2021/06/26 17:41:20;;;;;;;8.25;4.05;;;;;;;;;;4935375;29;20486;-67
2021/06/26 17:43:47;;;;;;;4.78;2.40;;;;;;;;;;4935580;29;20034;-67
2021/06/26 17:46:13;;;;;;;8.43;2.83;;;;;;;;;;4935444;29;20036;-71
2021/06/26 17:48:39;;;;;;;5.30;2.17;;;;;;;;;;4935156;29;20395;-68
2021/06/26 17:51:05;;;;;;;3.85;2.40;;;;;;;;;;4935672;29;20028;-70
2021/06/26 17:53:31;;;;;;;5.10;2.20;;;;;;;;;;4935365;29;20030;-69
2021/06/26 17:55:58;;;;;;;5.18;2.80;;;;;;;;;;4935364;29;20360;-68
2021/06/26 17:58:25;;;;;;;5.82;2.60;;;;;;;;;;4934738;29;20032;-69
2021/06/26 18:00:52;;;;;;;9.68;3.08;;;;;;;;;;4933929;29;20032;-71
2021/06/26 18:03:18;;;;;;;4.85;2.58;;;;;;;;;;4935351;29;20031;-70
2021/06/26 18:05:45;;;;;;;4.07;2.72;;;;;;;;;;4935219;29;20465;-71
2021/06/26 18:08:11;;;;;;;5.15;2.20;;;;;;;;;;4935550;29;20455;-70
2021/06/26 18:10:37;;;;;;;5.47;2.65;;;;;;;;;;4935371;29;20034;-71
2021/06/26 18:13:03;;;;;;;3.03;2.50;;;;;;;;;;4935236;29;20111;-71
2021/06/26 18:15:29;;;;;;;6.00;3.25;;;;;;;;;;4934823;29;20040;-71
2021/06/26 18:17:55;;;;;;;8.60;3.20;;;;;;;;;;4935051;29;20118;-71
2021/06/26 18:20:21;;;;;;;6.55;2.85;;;;;;;;;;4935224;29;20032;-71
2021/06/26 18:22:47;;;;;;;7.43;2.78;;;;;;;;;;4935129;29;20082;-70
2021/06/26 18:25:14;;;;;;;3.38;2.50;;;;;;;;;;4934760;29;20091;-69
2021/06/26 18:27:41;;;;;;;5.07;2.50;;;;;;;;;;4934143;29;20023;-71
2021/06/26 18:30:18;;;;;;;5.30;2.72;;;;;;;;;;4934084;29;20048;-69
2021/06/26 18:32:44;;;;;;;4.88;2.97;;;;;;;;;;4915506;29;20107;-70
2021/06/26 18:35:12;;;;;;;6.22;2.90;;;;;;;;;;4915601;29;20039;-69
2021/06/26 18:37:38;;;;;;;6.57;2.45;;;;;;;;;;4915655;29;20159;-69
2021/06/26 18:40:12;;;;;;;7.07;3.15;;;;;;;;;;4911190;29;20024;-71
2021/06/26 18:42:38;;;;;;;5.93;2.72;;;;;;;;;;4915294;29;20024;-70
2021/06/26 18:45:05;;;;;;;7.72;2.75;;;;;;;;;;4915248;29;20032;-68
2021/06/26 18:47:31;;;;;;;5.75;2.53;;;;;;;;;;4915078;29;20523;-67
2021/06/26 18:49:57;;;;;;;7.90;2.65;;;;;;;;;;4897365;29;20143;-69
2021/06/26 18:52:23;;;;;;;6.68;3.15;;;;;;;;;;4915277;29;20032;-69
2021/06/26 18:54:49;;;;;;;4.63;2.83;;;;;;;;;;4915327;29;20032;-68
2021/06/26 18:57:15;;;;;;;6.43;3.00;;;;;;;;;;4915330;29;20038;-66
2021/06/26 18:59:42;;;;;;;6.22;3.42;;;;;;;;;;4915086;29;20058;-69
2021/06/26 19:02:08;;;;;;;8.27;3.30;;;;;;;;;;4897809;29;20067;-68
2021/06/26 19:04:34;;;;;;;5.85;3.00;;;;;;;;;;4915191;29;20067;-68
2021/06/26 19:07:00;;;;;;;6.97;2.92;;;;;;;;;;4915034;29;20079;-69
2021/06/26 19:09:27;;;;;;;6.45;3.90;;;;;;;;;;4914391;29;20562;-68
2021/06/26 19:11:53;;;;;;;5.25;3.55;;;;;;;;;;4911841;29;20393;-67
2021/06/26 19:14:19;;;;;;;3.95;2.55;;;;;;;;;;4912012;29;20115;-67
2021/06/26 19:16:45;;;;;;;4.45;2.60;;;;;;;;;;4912451;29;20749;-68
2021/06/26 19:19:12;;;;;;;6.22;2.83;;;;;;;;;;4911973;29;20032;-69
2021/06/26 19:21:38;;;;;;;6.53;2.90;;;;;;;;;;4897174;29;20402;-69
2021/06/26 19:24:04;;;;;;;8.65;3.30;;;;;;;;;;4914713;29;20043;-67
2021/06/26 19:26:30;;;;;;;7.95;3.30;;;;;;;;;;4914712;29;20063;-69
2021/06/26 19:28:57;;;;;;;9.02;2.65;;;;;;;;;;4914463;29;20099;-69
2021/06/26 19:31:24;;;;;;;10.63;3.65;;;;;;;;;;4914276;29;20385;-67
2021/06/26 19:33:51;;;;;;;5.22;2.88;;;;;;;;;;4914500;29;20370;-69
2021/06/26 19:36:17;;;;;;;7.78;3.28;;;;;;;;;;4914503;29;20532;-69
2021/06/26 19:38:43;;;;;;;3.97;2.63;;;;;;;;;;4914756;29;20048;-69
2021/06/26 19:41:10;;;;;;;7.32;3.30;;;;;;;;;;4914700;29;20495;-68
2021/06/26 19:43:36;;;;;;;5.78;3.45;;;;;;;;;;4918312;29;20032;-68
2021/06/26 19:46:04;;;;;;;6.70;2.55;;;;;;;;;;4918227;29;20389;-69
2021/06/26 19:48:30;;;;;;;10.73;3.75;;;;;;;;;;4918599;29;20460;-68
2021/06/26 19:50:57;;;;;;;13.18;7.53;;;;;;;;;;4918430;29;20020;-68
2021/06/26 19:53:23;;;;;;;9.90;3.33;;;;;;;;;;4918541;29;20041;-69
2021/06/26 19:55:55;;;;;;;31.65;9.07;;;;;;;;;;4900687;29;20035;-68
2021/06/26 19:58:21;;;;;;;;;;;;;;;;;;4919080;29;20396;-67
2021/06/26 20:00:47;;;;;;;8.00;3.10;;;;;;;;;;4915378;29;19907;-71
2021/06/26 20:03:14;;;;;;;15.70;5.15;;;;;;;;;;4915957;29;20042;-69
2021/06/26 20:05:40;;;;;;;48.65;17.98;;;;;;;;;;4916479;29;20497;-69
2021/06/26 20:08:06;;;;;;;18.40;6.47;;;;;;;;;;4915206;29;20023;-68
2021/06/26 20:10:33;;;;;;;19.50;7.60;;;;;;;;;;4916686;29;20039;-69
2021/06/26 20:12:59;;;;;;;16.25;6.45;;;;;;;;;;4918119;29;20035;-69
2021/06/26 20:15:25;;;;;;;15.20;6.00;;;;;;;;;;4918095;29;20043;-70
2021/06/26 20:17:51;;;;;;;13.23;4.95;;;;;;;;;;4917931;29;20079;-68
2021/06/26 20:20:18;;;;;;;15.20;6.30;;;;;;;;;;4917540;29;20492;-70
2021/06/26 20:22:47;;;;;;;12.15;7.03;;;;;;;;;;4917726;29;20036;-70
2021/06/26 20:25:14;;;;;;;14.30;7.75;;;;;;;;;;4918007;29;20036;-72
2021/06/26 20:27:40;;;;;;;19.42;10.73;;;;;;;;;;4917785;29;20021;-69
2021/06/26 20:30:08;;;;;;;15.75;10.15;;;;;;;;;;4917486;29;20111;-69
2021/06/26 20:32:34;;;;;;;17.88;10.07;;;;;;;;;;4917573;29;20079;-69
2021/06/26 20:35:00;;;;;;;13.48;7.30;;;;;;;;;;4917731;29;20132;-69
2021/06/26 20:37:26;;;;;;;11.50;5.63;;;;;;;;;;4917642;29;20028;-69
2021/06/26 20:39:52;;;;;;;9.32;4.97;;;;;;;;;;4917782;29;20040;-70
2021/06/26 20:42:21;;;;;;;9.73;4.13;;;;;;;;;;4917637;29;20425;-70
2021/06/26 20:44:47;;;;;;;10.55;4.70;;;;;;;;;;4917421;29;20028;-68
2021/06/26 20:47:14;;;;;;;10.15;3.65;;;;;;;;;;4917304;29;20044;-66
2021/06/26 20:49:40;;;;;;;7.97;3.10;;;;;;;;;;4917499;29;20512;-68
2021/06/26 20:52:06;;;;;;;8.15;3.40;;;;;;;;;;4917423;29;20036;-70
2021/06/26 20:54:32;;;;;;;7.82;3.72;;;;;;;;;;4916288;29;20388;-67
2021/06/26 20:56:58;;;;;;;4.13;3.25;;;;;;;;;;4917247;29;20028;-65
2021/06/26 20:59:24;;;;;;;7.22;3.25;;;;;;;;;;4917254;29;20040;-69
2021/06/26 21:01:50;;;;;;;6.00;2.97;;;;;;;;;;4917002;29;20032;-68
2021/06/26 21:04:16;;;;;;;8.13;2.80;;;;;;;;;;4916868;29;20110;-70
2021/06/26 21:06:42;;;;;;;7.25;2.92;;;;;;;;;;4917216;29;20574;-69
2021/06/26 21:09:08;;;;;;;9.27;4.68;;;;;;;;;;4915262;29;20437;-68
2021/06/26 21:11:35;;;;;;;5.55;2.78;;;;;;;;;;4914271;29;20088;-68
2021/06/26 21:14:01;;;;;;;19.42;8.07;;;;;;;;;;4914230;29;20038;-69
2021/06/26 21:16:27;;;;;;;5.85;3.20;;;;;;;;;;4914769;29;20028;-69
2021/06/26 21:18:53;;;;;;;4.97;2.90;;;;;;;;;;4914333;29;20044;-68
2021/06/26 21:21:19;;;;;;;4.88;3.00;;;;;;;;;;4916988;29;20047;-67
2021/06/26 21:23:45;;;;;;;9.80;5.47;;;;;;;;;;4916946;29;20063;-69
2021/06/26 21:26:11;;;;;;;5.32;2.88;;;;;;;;;;4916821;29;20028;-69
2021/06/26 21:28:37;;;;;;;6.63;3.00;;;;;;;;;;4916840;29;20024;-69
2021/06/26 21:31:03;;;;;;;4.43;2.83;;;;;;;;;;4915903;29;20082;-68
2021/06/26 21:33:33;;;;;;;6.65;3.05;;;;;;;;;;4917000;29;20050;-68
2021/06/26 21:35:59;;;;;;;6.90;3.00;;;;;;;;;;4916678;29;20032;-67
2021/06/26 21:38:25;;;;;;;4.47;2.85;;;;;;;;;;4916404;29;20043;-67
2021/06/26 21:40:51;;;;;;;7.72;3.70;;;;;;;;;;4915902;29;20056;-67
2021/06/26 21:43:17;;;;;;;8.57;4.40;;;;;;;;;;4897913;29;20040;-69
2021/06/26 21:45:43;;;;;;;7.25;3.70;;;;;;;;;;4917327;29;20396;-68
2021/06/26 21:48:09;;;;;;;8.10;3.58;;;;;;;;;;4935721;29;20038;-67
2021/06/26 21:50:36;;;;;;;9.80;3.45;;;;;;;;;;4932621;29;20024;-69
2021/06/26 21:53:03;;;;;;;13.77;4.00;;;;;;;;;;4935690;29;20079;-68
2021/06/26 21:55:29;;;;;;;8.52;3.85;;;;;;;;;;4935333;29;20028;-68
2021/06/26 21:57:55;;;;;;;6.82;4.38;;;;;;;;;;4934801;29;20042;-67
2021/06/26 22:00:39;;;;;;;6.40;4.22;;;;;;;;;;4935177;29;20039;-66
2021/06/26 22:03:06;;;;;;;7.97;4.45;;;;;;;;;;4934930;29;20024;-68
2021/06/26 22:05:33;;;;;;;8.63;4.07;;;;;;;;;;4935287;29;20034;-66
2021/06/26 22:08:00;;;;;;;6.88;4.30;;;;;;;;;;4935087;29;20027;-65
2021/06/26 22:10:26;;;;;;;7.88;4.50;;;;;;;;;;4934652;29;20115;-65
2021/06/26 22:12:53;;;;;;;6.78;4.60;;;;;;;;;;4935477;29;20119;-64
2021/06/26 22:15:21;;;;;;;10.45;5.32;;;;;;;;;;4934920;29;20106;-65
2021/06/26 22:17:51;;;;;;;10.23;6.30;;;;;;;;;;4935065;29;20035;-63
2021/06/26 22:20:17;;;;;;;8.73;5.53;;;;;;;;;;4933265;29;20086;-69
2021/06/26 22:22:44;;;;;;;11.45;5.30;;;;;;;;;;4934757;29;20035;-66
2021/06/26 22:25:11;;;;;;;19.58;10.38;;;;;;;;;;4934958;29;20031;-65
2021/06/26 22:27:38;;;;;;;9.98;4.60;;;;;;;;;;4934862;29;20031;-62
2021/06/26 22:30:05;;;;;;;9.23;4.97;;;;;;;;;;4934273;29;20043;-63
2021/06/26 22:32:31;;;;;;;9.90;4.85;;;;;;;;;;4933873;29;20056;-62
2021/06/26 22:34:57;;;;;;;73.70;39.83;;;;;;;;;;4934293;29;20059;-64
2021/06/26 22:37:23;;;;;;;63.85;40.83;;;;;;;;;;4934560;29;20031;-63
2021/06/26 22:39:49;;;;;;;84.38;47.17;;;;;;;;;;4930341;29;20083;-62
2021/06/26 22:42:16;;;;;;;30.48;18.42;;;;;;;;;;4933811;29;20024;-64
2021/06/26 22:44:42;;;;;;;19.27;9.65;;;;;;;;;;4934419;29;20038;-62
2021/06/26 22:47:08;;;;;;;10.63;6.32;;;;;;;;;;4934410;29;20053;-66
2021/06/26 22:49:34;;;;;;;14.75;5.57;;;;;;;;;;4934349;29;20019;-68
2021/06/26 22:52:00;;;;;;;9.23;4.80;;;;;;;;;;4933871;29;20027;-65
2021/06/26 22:54:26;;;;;;;14.77;7.40;;;;;;;;;;4934475;29;20024;-66
2021/06/26 22:56:52;;;;;;;12.10;5.20;;;;;;;;;;4934691;29;20439;-69
2021/06/26 22:59:18;;;;;;;9.27;4.55;;;;;;;;;;4934201;29;20551;-63
2021/06/26 23:01:44;;;;;;;15.82;6.43;;;;;;;;;;4934342;29;20043;-70
2021/06/26 23:04:10;;;;;;;7.47;3.97;;;;;;;;;;4935011;29;20040;-65
2021/06/26 23:06:36;;;;;;;8.98;4.30;;;;;;;;;;4934572;29;20032;-71
2021/06/26 23:09:04;;;;;;;8.90;3.78;;;;;;;;;;4934483;29;20031;-69
2021/06/26 23:11:30;;;;;;;6.60;4.07;;;;;;;;;;4934191;29;20023;-70
2021/06/26 23:13:56;;;;;;;13.15;3.92;;;;;;;;;;4934494;29;20028;-66
2021/06/26 23:16:22;;;;;;;10.82;4.35;;;;;;;;;;4933873;29;20027;-65
2021/06/26 23:18:48;;;;;;;9.68;3.90;;;;;;;;;;4934187;29;20118;-66
2021/06/26 23:21:14;;;;;;;7.00;4.05;;;;;;;;;;4934463;29;20391;-65
2021/06/26 23:23:40;;;;;;;14.48;6.55;;;;;;;;;;4934736;29;20036;-64
2021/06/26 23:26:06;;;;;;;9.25;4.40;;;;;;;;;;4934245;29;20495;-66
2021/06/26 23:28:33;;;;;;;9.32;4.50;;;;;;;;;;4934077;29;20034;-65
2021/06/26 23:30:59;;;;;;;12.13;4.65;;;;;;;;;;4933683;29;20143;-64
2021/06/26 23:33:25;;;;;;;9.23;4.72;;;;;;;;;;4933976;29;20499;-69
2021/06/26 23:35:51;;;;;;;8.52;4.75;;;;;;;;;;4934050;29;20110;-68
2021/06/26 23:38:18;;;;;;;8.77;3.90;;;;;;;;;;4934043;29;20032;-65
2021/06/26 23:40:48;;;;;;;9.43;4.55;;;;;;;;;;4933882;29;20080;-64
2021/06/26 23:43:14;;;;;;;11.05;4.65;;;;;;;;;;4934326;29;20396;-64
2021/06/26 23:45:43;;;;;;;8.93;4.65;;;;;;;;;;4934091;29;20027;-71
2021/06/26 23:48:09;;;;;;;11.85;4.85;;;;;;;;;;4934057;29;20035;-64
2021/06/26 23:50:37;;;;;;;7.65;4.38;;;;;;;;;;4934174;29;20031;-63
2021/06/26 23:53:03;;;;;;;11.88;4.75;;;;;;;;;;4933734;29;20039;-64
2021/06/26 23:55:30;;;;;;;7.50;4.47;;;;;;;;;;4934097;29;20023;-63
2021/06/26 23:57:56;;;;;;;6.05;4.20;;;;;;;;;;4933689;29;20467;-63
